Latest Weather Observations for Avalon

IDV60901

Issued at 1:11 pm EDT Monday 30 March 2015 (issued every 10 minutes, with the page automatically refreshed every 10 minutes)

About weather observations | Map of Melbourne area stations | Latest observations for Melbourne area | Other Formats
Station Details ID: 087113 Name: AVALON AIRPORT Lat: -38.03 Lon: 144.48 Height: 10.6 m
Data from the previous 72 hours. | See also: Recent months at Avalon
Date/Time
EDT
Tmp

°C
App
Tmp
°C
Dew
Point
°C
Rel
Hum
%
Delta-T

°C
Wind Press
QNH
hPa
Press
MSL
hPa
Rain
since
9 am
mm
Dir
 
Spd
km/h
Gust
km/h
Spd
kts
Gust
kts
30/01:00pm 22.2 20.2 10.0 46 6.6 SW 11 26 6 14 1024.3 1024.3 0.0
30/12:30pm 21.9 20.5 11.0 50 6.0 SSW 9 20 5 11 1024.6 1024.6 0.0
30/12:00pm 21.6 20.3 10.1 48 6.2 WNW 7 13 4 7 1024.7 1024.7 0.0
30/11:30am 20.7 19.4 9.3 48 6.1 WNW 6 11 3 6 1024.9 1024.9 0.0
30/11:00am 19.9 17.9 10.3 54 5.2 NW 11 17 6 9 1025.0 1025.0 0.0
30/10:30am 18.7 17.6 10.5 59 4.4 WNW 7 11 4 6 1025.0 1025.0 0.0
30/10:00am 16.9 15.4 10.7 67 3.3 WNW 9 13 5 7 1025.0 1025.0 0.0
30/09:30am 14.5 12.2 10.3 76 2.2 WNW 13 17 7 9 1024.7 1024.7 0.0
30/09:00am 12.6 10.3 10.3 86 1.2 WNW 13 15 7 8 1024.6 1024.6 0.0
30/08:30am 10.9 8.5 10.0 94 0.5 WNW 13 17 7 9 1024.2 1024.2 0.0
30/08:00am 9.3 6.5 8.4 94 0.4 NW 13 15 7 8 1024.0 1024.0 0.0
30/07:30am 9.4 6.6 8.6 95 0.4 WNW 13 15 7 8 1023.7 1023.7 0.0
30/07:00am 8.7 5.8 8.1 96 0.3 W 13 15 7 8 1023.5 1023.5 0.0
30/06:30am 8.7 6.1 7.9 95 0.4 W 11 13 6 7 1023.1 1023.1 0.0
30/05:30am 8.7 8.3 8.1 96 0.3 CALM 0 0 0 0 1022.7 1022.7 0.0
30/05:00am 8.8 7.2 8.2 96 0.3 NW 6 9 3 5 1022.5 1022.5 0.0
30/04:30am 8.8 6.3 8.2 96 0.3 NNW 11 13 6 7 1022.5 1022.5 0.0
30/04:00am 9.2 6.7 8.4 95 0.4 NNW 11 13 6 7 1022.7 1022.7 0.0
30/03:30am 9.4 9.1 8.5 94 0.4 CALM 0 0 0 0 1022.9 1022.9 0.0
30/02:30am 11.2 11.3 10.3 94 0.5 CALM 0 0 0 0 1023.4 1023.4 0.0
30/02:00am 10.9 10.9 9.7 92 0.6 CALM 0 4 0 2 1023.5 1023.5 0.0
30/01:30am 10.7 10.5 9.1 90 0.8 CALM 0 0 0 0 1023.7 1023.7 0.0
30/01:00am 11.2 9.8 9.5 89 0.9 NW 7 7 4 4 1023.7 1023.7 0.0
30/12:30am 11.5 9.4 9.9 90 0.8 N 11 13 6 7 1023.7 1023.7 0.0
 
Date/Time
EDT
Tmp

°C
App
Tmp
°C
Dew
Point
°C
Rel
Hum
%
Delta-T

°C
Wind Press
QNH
hPa
Press
MSL
hPa
Rain
since
9 am
mm
Dir
 
Spd
km/h
Gust
km/h
Spd
kts
Gust
kts
29/11:30pm 12.2 10.2 10.1 87 1.1 N 11 13 6 7 1024.0 1024.0 0.0
29/11:00pm 12.5 10.9 10.2 86 1.2 N 9 11 5 6 1024.0 1024.0 0.0
29/10:30pm 13.3 12.0 11.2 87 1.1 N 9 11 5 6 1024.1 1024.1 0.0
29/10:00pm 12.9 11.4 10.4 85 1.3 N 9 11 5 6 1024.0 1024.0 0.0
29/09:30pm 13.6 13.9 10.8 83 1.5 CALM 0 4 0 2 1023.7 1023.7 0.0
29/08:30pm 14.3 12.8 10.7 79 1.9 SSE 9 11 5 6 1022.9 1022.9 0.0
29/08:00pm 15.0 13.2 10.8 76 2.2 SSE 11 13 6 7 1022.6 1022.6 0.0
29/07:30pm 16.2 13.6 10.7 70 2.9 SSE 15 20 8 11 1022.2 1022.2 0.0
29/07:00pm 17.6 13.3 10.9 65 3.6 SSE 24 30 13 16 1021.8 1021.8 0.0
29/06:30pm 18.9 14.2 10.5 58 4.5 S 26 32 14 17 1021.4 1021.4 0.0
29/05:30pm 20.4 15.7 10.5 53 5.4 SE 26 32 14 17 1020.4 1020.4 0.0
29/05:00pm 22.0 19.0 10.5 48 6.3 E 17 33 9 18 1020.0 1020.0 0.0
29/04:30pm 25.0 20.8 8.1 34 9.0 WSW 20 32 11 17 1019.8 1019.8 0.0
29/04:00pm 24.4 19.8 8.0 35 8.7 WSW 22 35 12 19 1019.9 1019.9 0.0
29/03:30pm 24.7 20.1 8.2 35 8.8 W 22 33 12 18 1020.1 1020.1 0.0
29/03:00pm 24.2 19.2 8.2 36 8.5 WSW 24 33 13 18 1020.4 1020.4 0.0
29/02:30pm 23.9 19.6 7.9 36 8.4 WNW 20 30 11 16 1020.7 1020.7 0.0
29/02:00pm 23.4 19.3 8.7 39 7.8 WNW 20 32 11 17 1021.0 1021.0 0.0
29/01:30pm 23.0 19.2 9.8 43 7.2 W 20 35 11 19 1021.3 1021.3 0.0
29/01:00pm 22.7 18.5 9.8 44 7.0 W 22 33 12 18 1021.7 1021.7 0.0
29/12:30pm 21.2 17.2 9.1 46 6.4 W 20 30 11 16 1022.2 1022.2 0.0
29/12:00pm 20.5 16.6 9.4 49 5.9 W 20 28 11 15 1022.5 1022.5 0.0
29/11:30am 19.7 15.8 9.3 51 5.5 W 20 28 11 15 1022.7 1022.7 0.0
29/11:00am 18.4 16.2 9.2 55 4.8 W 11 17 6 9 1022.8 1022.8 0.0
29/10:30am 17.2 15.4 9.4 60 4.1 W 9 11 5 6 1023.0 1023.0 0.0
29/10:00am 15.2 13.7 9.1 67 3.1 NW 7 9 4 5 1023.0 1023.0 0.0
29/09:30am 13.0 11.7 9.1 77 2.0 SW 6 9 3 5 1023.0 1023.0 0.0
29/09:00am 11.6 10.1 9.3 86 1.1 SSW 7 9 4 5 1023.0 1023.0 0.0
29/08:30am 9.3 6.4 8.2 93 0.5 NW 13 15 7 8 1022.7 1022.7 0.0
29/08:00am 6.9 3.5 6.0 94 0.4 NW 13 13 7 7 1022.5 1022.5 0.0
29/07:30am 6.6 4.0 5.9 95 0.3 NNW 9 11 5 6 1022.2 1022.2 0.0
29/07:00am 6.7 4.0 5.8 94 0.4 W 9 9 5 5 1021.9 1021.9 0.0
29/06:30am 6.5 3.8 5.5 93 0.4 W 9 11 5 6 1021.6 1021.6 0.0
29/06:00am 6.8 4.5 5.9 94 0.4 NW 7 9 4 5 1021.1 1021.1 0.0
29/05:30am 7.0 4.4 6.3 95 0.3 NNW 9 11 5 6 1020.8 1020.8 0.0
29/05:00am 6.7 4.0 5.7 93 0.4 NNW 9 11 5 6 1020.7 1020.7 0.0
29/04:30am 8.1 6.1 7.2 94 0.4 N 7 9 4 5 1020.6 1020.6 0.0
29/04:00am 7.9 5.1 6.8 93 0.5 NNW 11 13 6 7 1020.5 1020.5 0.0
29/03:30am 8.0 5.2 6.8 92 0.6 NNW 11 13 6 7 1020.8 1020.8 0.0
29/03:00am 7.9 4.6 6.5 91 0.6 NNW 13 13 7 7 1021.1 1021.1 0.0
29/02:30am 8.5 5.4 7.1 91 0.7 NNW 13 15 7 8 1021.6 1021.6 0.0
29/02:00am 8.3 5.1 6.8 90 0.7 N 13 15 7 8 1021.7 1021.7 0.0
29/01:30am 8.9 6.1 7.0 88 0.9 NNW 11 13 6 7 1022.0 1022.0 0.0
29/01:00am 9.6 7.2 7.0 84 1.2 NW 9 9 5 5 1022.3 1022.3 0.0
29/12:30am 10.6 8.4 7.8 83 1.4 NW 9 11 5 6 1022.4 1022.4 0.0
29/12:00am 10.6 8.4 7.8 83 1.3 WNW 9 11 5 6 1022.6 1022.6 0.0
 
Date/Time
EDT
Tmp

°C
App
Tmp
°C
Dew
Point
°C
Rel
Hum
%
Delta-T

°C
Wind Press
QNH
hPa
Press
MSL
hPa
Rain
since
9 am
mm
Dir
 
Spd
km/h
Gust
km/h
Spd
kts
Gust
kts
28/11:30pm 10.7 8.9 8.1 84 1.3 WNW 7 11 4 6 1022.7 1022.7 0.0
28/11:00pm 10.4 8.4 7.3 81 1.5 NW 7 9 4 5 1022.7 1022.7 0.0
28/10:30pm 11.2 10.8 8.1 81 1.5 CALM 0 0 0 0 1022.8 1022.8 0.0
28/10:00pm 11.9 11.5 8.2 78 1.8 CALM 0 0 0 0 1022.7 1022.7 0.0
28/09:30pm 13.1 11.8 9.2 77 2.0 NE 6 7 3 4 1022.7 1022.7 0.0
28/09:00pm 13.4 11.6 9.3 76 2.1 NE 9 9 5 5 1022.5 1022.5 0.0
28/08:30pm 13.9 12.0 9.1 73 2.4 NE 9 13 5 7 1022.4 1022.4 0.0
28/08:00pm 14.4 12.2 9.2 71 2.6 ENE 11 13 6 7 1022.3 1022.3 0.0
28/07:30pm 15.0 12.8 9.4 69 2.9 E 11 13 6 7 1022.2 1022.2 0.0
28/07:00pm 16.0 12.7 9.4 65 3.4 E 17 20 9 11 1022.1 1022.1 0.0
28/06:30pm 16.8 12.6 9.7 63 3.7 ESE 22 28 12 15 1022.0 1022.0 0.0
28/06:00pm 17.8 14.2 9.7 59 4.3 SE 19 26 10 14 1021.9 1021.9 0.0
28/05:30pm 18.6 14.1 8.6 52 5.2 S 22 26 12 14 1022.0 1022.0 0.0
28/05:00pm 19.1 14.3 8.7 51 5.4 SSW 24 32 13 17 1022.1 1022.1 0.0
28/04:30pm 19.5 15.1 9.1 51 5.5 S 22 32 12 17 1022.4 1022.4 0.0
28/04:00pm 19.2 15.1 8.5 50 5.5 SSW 20 28 11 15 1022.7 1022.7 0.0
28/03:30pm 19.8 17.0 8.5 48 5.9 WSW 13 20 7 11 1023.1 1023.1 0.0
28/03:00pm 19.1 17.0 8.4 50 5.5 W 9 19 5 10 1023.3 1023.3 0.0
28/02:30pm 18.6 15.3 8.0 50 5.4 SW 15 19 8 10 1023.6 1023.6 0.0
28/02:00pm 18.0 15.1 8.0 52 5.1 SW 13 19 7 10 1024.1 1024.1 0.0
28/01:30pm 18.4 16.3 8.1 51 5.3 NNW 9 17 5 9 1024.4 1024.4 0.0
28/01:00pm 17.6 15.0 7.9 53 4.9 W 11 20 6 11 1024.9 1024.9 0.0
28/12:30pm 17.3 14.0 7.9 54 4.8 WNW 15 24 8 13 1025.2 1025.2 0.0
28/12:00pm 17.2 14.2 7.8 54 4.7 WNW 13 20 7 11 1025.5 1025.5 0.0
28/11:30am 16.7 13.0 7.9 56 4.4 W 17 22 9 12 1025.7 1025.7 0.0
28/11:00am 16.5 12.9 8.2 58 4.2 WSW 17 22 9 12 1025.7 1025.7 0.0
28/10:30am 15.9 12.2 7.9 59 4.0 WSW 17 24 9 13 1025.8 1025.8 0.0
28/10:00am 15.4 11.4 8.4 63 3.5 W 19 24 10 13 1026.0 1026.0 0.0
28/09:30am 14.7 11.0 9.3 70 2.8 W 19 24 10 13 1025.9 1025.9 0.0
28/09:00am 14.0 10.9 8.8 71 2.6 W 15 20 8 11 1025.7 1025.7 0.0
28/08:30am 13.6 10.9 8.9 73 2.4 W 13 17 7 9 1025.5 1025.5 0.0
28/08:00am 12.9 10.3 9.2 78 1.9 WNW 13 15 7 8 1025.3 1025.3 0.0
28/07:30am 12.7 10.5 9.2 79 1.8 W 11 17 6 9 1025.0 1025.0 0.0
28/07:00am 12.7 10.0 9.0 78 1.8 W 13 17 7 9 1024.9 1024.9 0.0
28/06:30am 12.4 9.6 8.7 78 1.8 WNW 13 15 7 8 1024.7 1024.7 0.0
28/06:00am 12.5 9.7 8.6 77 1.9 W 13 17 7 9 1024.7 1024.7 0.0
28/05:30am 12.8 10.0 8.7 76 2.0 W 13 20 7 11 1024.7 1024.7 0.0
28/05:00am 12.9 9.4 8.8 76 2.0 WSW 17 20 9 11 1024.5 1024.5 0.0
28/04:30am 12.9 9.8 9.0 77 2.0 W 15 20 8 11 1024.4 1024.4 0.0
28/04:00am 13.1 9.1 9.0 76 2.1 W 20 28 11 15 1024.4 1024.4 0.0
28/03:30am 13.2 9.7 8.9 75 2.2 W 17 20 9 11 1024.4 1024.4 0.0
28/03:00am 13.3 9.3 9.0 75 2.2 WNW 20 26 11 14 1024.4 1024.4 0.0
28/02:30am 13.3 9.9 9.0 75 2.2 W 17 20 9 11 1024.6 1024.6 0.0
28/02:00am 13.1 9.1 9.2 77 2.0 W 20 24 11 13 1024.7 1024.7 0.0
28/01:30am 13.1 9.8 9.4 78 1.9 W 17 24 9 13 1024.8 1024.8 0.0
28/01:00am 13.0 9.6 9.3 78 1.9 W 17 22 9 12 1025.0 1025.0 0.0
28/12:30am 13.3 10.3 9.4 77 2.0 W 15 20 8 11 1025.1 1025.1 0.0
28/12:00am 13.3 9.9 9.2 76 2.1 W 17 20 9 11 1025.1 1025.1 0.0
 
Date/Time
EDT
Tmp

°C
App
Tmp
°C
Dew
Point
°C
Rel
Hum
%
Delta-T

°C
Wind Press
QNH
hPa
Press
MSL
hPa
Rain
since
9 am
mm
Dir
 
Spd
km/h
Gust
km/h
Spd
kts
Gust
kts
27/11:30pm 13.7 10.2 8.7 72 2.5 W 17 22 9 12 1025.3 1025.3 0.0
27/11:00pm 13.8 10.2 8.4 70 2.7 WSW 17 22 9 12 1025.3 1025.3 0.0
27/10:30pm 14.2 11.7 8.2 67 3.0 SW 11 15 6 8 1025.3 1025.3 0.0
27/10:00pm 14.6 11.3 8.1 65 3.2 W 15 22 8 12 1025.1 1025.1 0.0
27/09:30pm 14.8 10.5 7.8 63 3.5 W 20 24 11 13 1025.1 1025.1 0.0
27/09:00pm 15.2 10.8 7.2 59 3.9 WSW 20 28 11 15 1024.9 1024.9 0.0
27/08:30pm 15.5 11.6 7.3 58 4.1 W 17 28 9 15 1024.7 1024.7 0.0
27/08:00pm 15.2 11.6 6.7 57 4.1 WNW 15 20 8 11 1024.2 1024.2 0.0
27/07:30pm 15.5 12.3 7.0 57 4.2 SW 13 17 7 9 1024.0 1024.0 0.0
27/07:00pm 16.6 10.8 6.4 51 5.0 WSW 26 33 14 18 1023.7 1023.7 0.0
27/06:30pm 16.8 11.5 6.6 51 5.0 WSW 24 33 13 18 1023.6 1023.6 0.0
27/06:00pm 17.0 12.0 6.5 50 5.1 WSW 22 32 12 17 1023.3 1023.3 0.0
27/05:30pm 16.5 11.4 7.7 56 4.4 SW 24 35 13 19 1023.2 1023.2 0.0
27/05:00pm 17.1 12.2 6.9 51 5.0 W 22 32 12 17 1023.1 1023.1 0.0
27/04:30pm 17.0 11.3 6.8 51 5.0 WSW 26 33 14 18 1023.1 1023.1 0.0
27/04:00pm 17.2 10.9 7.3 52 4.9 W 30 41 16 22 1023.1 1023.1 0.0
27/03:38pm 17.9 11.6 7.6 51 5.2 W 30 48 16 26 1023.1 1023.1 0.0
27/03:30pm 18.2 11.9 7.6 50 5.4 W 30 41 16 22 1023.2 1023.2 0.0
27/03:00pm 17.8 11.0 7.0 49 5.4 W 32 43 17 23 1023.3 1023.3 0.0
27/02:46pm 18.4 12.3 8.1 51 5.3 W 30 48 16 26 1023.4 1023.4 0.0
27/02:30pm 17.1 9.9 7.7 54 4.7 W 35 44 19 24 1023.5 1023.5 0.0
27/02:00pm 16.9 9.6 7.3 53 4.8 WSW 35 48 19 26 1023.8 1023.8 0.0
27/01:30pm 17.1 9.8 7.2 52 4.9 WSW 35 46 19 25 1023.8 1023.8 0.0

Latest Capital City Observations: Canberra | Sydney | Melbourne | Brisbane | Adelaide | Perth | Hobart | Darwin

Other Formats:

Comma delimited format used in spreadsheet applications
http://www.bom.gov.au/fwo/IDV60901/IDV60901.94854.axf

JavaScript Object Notation format (JSON) in row-major order
http://www.bom.gov.au/fwo/IDV60901/IDV60901.94854.json